createdAt,value
2023-04-11T00:00:56.995Z,2.83
2023-04-11T00:03:25.333Z,3.30
2023-04-11T00:05:54.697Z,2.70
2023-04-11T00:08:22.542Z,2.90
2023-04-11T00:10:50.344Z,2.90
2023-04-11T00:13:19.678Z,2.70
2023-04-11T00:15:47.728Z,2.73
2023-04-11T00:18:15.548Z,2.40
2023-04-11T00:20:43.323Z,2.60
2023-04-11T00:23:13.165Z,2.73
2023-04-11T00:25:41.261Z,2.80
2023-04-11T00:28:09.150Z,2.80
2023-04-11T00:30:36.895Z,2.67
2023-04-11T00:33:04.938Z,2.43
2023-04-11T00:35:34.582Z,2.40
2023-04-11T00:38:03.848Z,2.40
2023-04-11T00:40:33.518Z,2.60
2023-04-11T00:43:01.349Z,2.40
2023-04-11T00:45:29.339Z,2.53
2023-04-11T00:47:57.203Z,2.80
2023-04-11T00:50:25.131Z,2.23
2023-04-11T00:52:56.052Z,2.40
2023-04-11T00:55:23.970Z,2.83
2023-04-11T00:57:55.831Z,2.57
2023-04-11T01:00:24.688Z,2.40
2023-04-11T01:02:52.616Z,2.40
2023-04-11T01:05:21.878Z,2.30
2023-04-11T01:07:54.888Z,2.43
2023-04-11T01:10:23.720Z,2.70
2023-04-11T01:12:54.155Z,2.40
2023-04-11T01:15:24.884Z,2.63
2023-04-11T01:17:55.189Z,2.57
2023-04-11T01:20:23.044Z,2.60
2023-04-11T01:22:51.370Z,2.30
2023-04-11T01:25:22.171Z,2.40
2023-04-11T01:27:50.026Z,2.50
2023-04-11T01:30:17.780Z,2.70
2023-04-11T01:32:45.640Z,2.60
2023-04-11T01:35:13.941Z,2.60
2023-04-11T01:37:41.728Z,2.33
2023-04-11T01:40:10.522Z,2.30
2023-04-11T01:42:41.477Z,2.50
2023-04-11T01:45:12.969Z,2.47
2023-04-11T01:47:41.110Z,2.33
2023-04-11T01:50:09.761Z,2.47
2023-04-11T01:52:37.500Z,2.27
2023-04-11T01:55:06.090Z,2.50
2023-04-11T01:57:33.862Z,2.00
2023-04-11T02:00:03.839Z,2.17
2023-04-11T02:02:42.233Z,2.20
2023-04-11T02:05:11.034Z,1.90
2023-04-11T02:07:38.915Z,1.70
2023-04-11T02:10:08.622Z,1.70
2023-04-11T02:12:36.396Z,1.90
2023-04-11T02:15:06.304Z,1.80
2023-04-11T02:17:34.231Z,2.07
2023-04-11T02:20:02.376Z,1.60
2023-04-11T02:22:30.866Z,1.50
2023-04-11T02:24:58.604Z,1.97
2023-04-11T02:27:26.399Z,1.80
2023-04-11T02:29:55.724Z,1.90
2023-04-11T02:32:24.917Z,1.63
2023-04-11T02:34:52.752Z,1.70
2023-04-11T02:37:20.657Z,1.57
2023-04-11T02:39:48.416Z,1.80
2023-04-11T02:42:16.151Z,1.80
2023-04-11T02:44:43.974Z,1.60
2023-04-11T02:47:11.982Z,1.73
2023-04-11T02:49:42.374Z,1.73
2023-04-11T02:52:11.758Z,1.90
2023-04-11T02:54:39.642Z,1.90
2023-04-11T02:57:07.431Z,1.70
2023-04-11T02:59:35.277Z,1.73
2023-04-11T03:02:03.741Z,1.90
2023-04-11T03:04:32.055Z,1.87
2023-04-11T03:07:14.113Z,1.70
2023-04-11T03:09:41.889Z,1.73
2023-04-11T03:12:09.655Z,1.70
2023-04-11T03:14:47.282Z,1.70
2023-04-11T03:17:15.024Z,1.50
2023-04-11T03:19:43.038Z,1.77
2023-04-11T03:22:13.181Z,1.50
2023-04-11T03:24:40.963Z,1.60
2023-04-11T03:27:09.257Z,1.70
2023-04-11T03:29:39.953Z,1.70
2023-04-11T03:32:17.874Z,1.53
2023-04-11T03:34:45.693Z,1.70
2023-04-11T03:37:16.896Z,1.80
2023-04-11T03:39:44.718Z,1.47
2023-04-11T03:42:13.442Z,1.30
2023-04-11T03:44:41.787Z,1.27
2023-04-11T03:47:09.833Z,1.30
2023-04-11T03:49:42.772Z,1.50
2023-04-11T03:52:11.407Z,1.60
2023-04-11T03:54:41.879Z,1.50
2023-04-11T03:57:11.626Z,1.40
2023-04-11T03:59:39.888Z,1.33
2023-04-11T04:02:10.364Z,1.57
2023-04-11T04:04:47.019Z,1.70
2023-04-11T04:07:29.249Z,1.43
2023-04-11T04:10:12.751Z,1.60
2023-04-11T04:12:42.574Z,1.73
2023-04-11T04:15:21.503Z,1.50
2023-04-11T04:17:50.464Z,1.43
2023-04-11T04:20:25.683Z,1.40
2023-04-11T04:22:57.208Z,1.40
2023-04-11T04:25:36.115Z,1.60
2023-04-11T04:28:04.239Z,1.30
2023-04-11T04:30:38.973Z,1.57
2023-04-11T04:33:14.714Z,1.57
2023-04-11T04:35:47.449Z,1.40
2023-04-11T04:38:17.459Z,1.33
2023-04-11T04:40:54.670Z,1.70
2023-04-11T04:43:24.972Z,1.57
2023-04-11T04:45:58.061Z,1.70
2023-04-11T04:48:34.289Z,1.80
2023-04-11T04:51:02.050Z,1.67
2023-04-11T04:53:34.685Z,1.50
2023-04-11T04:56:04.011Z,1.50
2023-04-11T04:58:35.161Z,1.77
2023-04-11T05:01:06.411Z,1.70
2023-04-11T05:03:35.911Z,1.53
2023-04-11T05:06:07.158Z,1.70
2023-04-11T05:08:35.685Z,1.63
2023-04-11T05:11:07.753Z,2.10
2023-04-11T05:13:37.114Z,1.63
2023-04-11T05:16:07.279Z,1.80
2023-04-11T05:18:35.403Z,2.30
2023-04-11T05:21:04.675Z,2.00
2023-04-11T05:23:37.292Z,2.00
2023-04-11T05:26:08.562Z,1.73
2023-04-11T05:28:37.869Z,1.70
2023-04-11T05:31:12.068Z,1.90
2023-04-11T05:33:43.188Z,1.77
2023-04-11T05:36:13.913Z,2.00
2023-04-11T05:38:41.917Z,1.83
2023-04-11T05:41:11.972Z,1.67
2023-04-11T05:43:39.776Z,1.50
2023-04-11T05:46:10.646Z,1.43
2023-04-11T05:48:38.919Z,1.60
2023-04-11T05:51:07.067Z,1.70
2023-04-11T05:53:35.308Z,1.70
2023-04-11T05:56:03.121Z,2.10
2023-04-11T05:58:32.209Z,1.93
2023-04-11T06:01:00.960Z,1.57
2023-04-11T06:03:28.848Z,1.63
2023-04-11T06:05:56.846Z,2.10
2023-04-11T06:08:24.617Z,1.60
2023-04-11T06:10:52.368Z,1.90
2023-04-11T06:13:20.135Z,1.73
2023-04-11T06:15:49.364Z,1.80
2023-04-11T06:18:17.411Z,1.77
2023-04-11T06:20:46.198Z,1.57
2023-04-11T06:23:14.004Z,1.70
2023-04-11T06:25:42.244Z,1.90
2023-04-11T06:28:10.146Z,1.70
2023-04-11T06:30:37.960Z,1.83
2023-04-11T06:33:07.190Z,1.67
2023-04-11T06:35:35.063Z,1.57
2023-04-11T06:38:02.918Z,1.73
2023-04-11T06:40:30.678Z,1.60
2023-04-11T06:43:00.279Z,2.00
2023-04-11T06:45:28.197Z,2.00
2023-04-11T06:47:56.201Z,2.13
2023-04-11T06:50:25.354Z,1.97
2023-04-11T06:52:53.258Z,2.27
2023-04-11T06:55:21.279Z,2.70
2023-04-11T06:57:49.060Z,2.50
2023-04-11T07:00:17.668Z,2.33
2023-04-11T07:02:45.715Z,2.50
2023-04-11T07:05:13.713Z,2.40
2023-04-11T07:07:42.976Z,2.60
2023-04-11T07:10:11.284Z,2.30
2023-04-11T07:12:39.110Z,2.60
2023-04-11T07:15:08.139Z,2.53
2023-04-11T07:17:36.177Z,2.20
2023-04-11T07:20:06.535Z,1.90
2023-04-11T07:22:34.400Z,1.90
2023-04-11T07:25:04.676Z,1.90
2023-04-11T07:27:33.460Z,2.00
2023-04-11T07:30:01.509Z,1.70
2023-04-11T07:32:29.592Z,1.50
2023-04-11T07:34:57.416Z,1.40
2023-04-11T07:37:26.951Z,1.40
2023-04-11T07:39:54.763Z,1.90
2023-04-11T07:42:23.892Z,1.60
2023-04-11T07:44:51.729Z,1.73
2023-04-11T07:47:19.673Z,1.60
2023-04-11T07:49:47.528Z,1.60
2023-04-11T07:52:15.570Z,1.03
2023-04-11T07:54:43.428Z,1.50
2023-04-11T07:57:11.232Z,1.47
2023-04-11T07:59:41.090Z,1.43
2023-04-11T08:02:09.098Z,1.50
2023-04-11T08:04:38.381Z,1.60
2023-04-11T08:07:06.902Z,1.50
2023-04-11T08:09:35.377Z,1.27
2023-04-11T08:12:03.479Z,1.50
2023-04-11T08:14:31.409Z,1.50
2023-04-11T08:17:00.979Z,1.47
2023-04-11T08:19:28.950Z,1.30
2023-04-11T08:21:56.907Z,1.50
2023-04-11T08:24:24.697Z,1.40
2023-04-11T08:26:52.487Z,1.40
2023-04-11T08:29:20.502Z,1.20
2023-04-11T08:31:48.413Z,1.30
2023-04-11T08:34:17.633Z,1.10
2023-04-11T08:36:45.526Z,1.47
2023-04-11T08:39:13.431Z,1.10
2023-04-11T08:41:41.798Z,1.40
2023-04-11T08:44:12.850Z,1.30
2023-04-11T08:46:44.358Z,1.30
2023-04-11T08:49:12.419Z,1.20
2023-04-11T08:51:44.519Z,1.20
2023-04-11T08:54:13.153Z,1.00
2023-04-11T08:56:42.816Z,0.97
2023-04-11T08:59:10.835Z,1.10
2023-04-11T09:01:40.850Z,1.07
2023-04-11T09:04:10.757Z,1.20
2023-04-11T09:06:40.207Z,0.90
2023-04-11T09:09:28.787Z,0.93
2023-04-11T09:11:56.858Z,1.10
2023-04-11T09:14:26.772Z,0.80
2023-04-11T09:16:56.536Z,1.30
2023-04-11T09:19:26.095Z,0.77
2023-04-11T09:21:54.997Z,1.10
2023-04-11T09:24:25.962Z,0.90
2023-04-11T09:27:12.686Z,1.20
2023-04-11T09:29:42.819Z,1.40
2023-04-11T09:32:30.499Z,1.23
2023-04-11T09:35:13.256Z,0.90
2023-04-11T09:37:46.846Z,1.17
2023-04-11T09:40:18.331Z,1.10
2023-04-11T09:42:47.953Z,1.00
2023-04-11T09:45:21.057Z,1.47
2023-04-11T09:47:50.546Z,1.33
2023-04-11T09:50:18.989Z,1.13
2023-04-11T09:52:47.545Z,1.47
2023-04-11T09:55:19.790Z,1.40
2023-04-11T09:57:49.065Z,1.60
2023-04-11T10:00:20.087Z,1.60
2023-04-11T10:02:50.238Z,1.53
2023-04-11T10:05:21.024Z,1.33
2023-04-11T10:07:53.421Z,1.47
2023-04-11T10:10:24.762Z,1.30
2023-04-11T10:12:52.848Z,1.57
2023-04-11T10:15:21.773Z,1.57
2023-04-11T10:18:09.431Z,1.50
2023-04-11T10:20:46.576Z,1.53
2023-04-11T10:23:16.118Z,1.83
2023-04-11T10:25:55.488Z,1.60
2023-04-11T10:28:38.367Z,2.00
2023-04-11T10:31:13.045Z,1.70
2023-04-11T10:33:42.248Z,1.80
2023-04-11T10:36:12.403Z,1.53
2023-04-11T10:38:49.378Z,1.50
2023-04-11T10:41:31.536Z,1.50
2023-04-11T10:44:24.993Z,1.87
2023-04-11T10:46:54.634Z,1.70
2023-04-11T10:49:37.538Z,1.40
2023-04-11T10:52:22.810Z,1.30
2023-04-11T10:54:52.228Z,1.70
2023-04-11T10:57:22.785Z,1.50
2023-04-11T11:00:13.952Z,1.57
2023-04-11T11:02:43.135Z,1.43
2023-04-11T11:05:22.195Z,1.30
2023-04-11T11:07:51.701Z,1.60
2023-04-11T11:10:42.401Z,1.73
2023-04-11T11:13:11.986Z,1.90
2023-04-11T11:15:40.073Z,1.73
2023-04-11T11:18:09.838Z,1.50
2023-04-11T11:20:38.530Z,1.30
2023-04-11T11:23:07.847Z,1.37
2023-04-11T11:25:36.485Z,1.43
2023-04-11T11:28:06.757Z,1.60
2023-04-11T11:30:37.320Z,1.60
2023-04-11T11:33:18.924Z,1.40
2023-04-11T11:35:51.900Z,1.30
2023-04-11T11:38:20.317Z,1.70
2023-04-11T11:40:48.814Z,1.80
2023-04-11T11:43:17.137Z,1.37
2023-04-11T11:45:47.119Z,1.63
2023-04-11T11:48:22.288Z,1.30
2023-04-11T11:50:58.091Z,1.30
2023-04-11T11:53:26.851Z,1.50
2023-04-11T11:55:55.017Z,1.53
2023-04-11T11:58:22.918Z,1.57
2023-04-11T12:00:53.318Z,1.73
2023-04-11T12:03:23.812Z,1.80
2023-04-11T12:05:52.907Z,1.90
2023-04-11T12:08:22.760Z,1.97
2023-04-11T12:10:51.634Z,1.83
2023-04-11T12:13:22.430Z,1.83
2023-04-11T12:15:53.644Z,2.23
2023-04-11T12:18:22.762Z,1.83
2023-04-11T12:20:50.801Z,2.10
2023-04-11T12:23:18.956Z,1.80
2023-04-11T12:25:47.317Z,1.70
2023-04-11T12:28:15.221Z,2.13
2023-04-11T12:30:45.318Z,1.93
2023-04-11T12:33:14.665Z,1.50
2023-04-11T12:35:42.467Z,1.33
2023-04-11T12:38:11.942Z,1.93
2023-04-11T12:40:42.764Z,2.13
2023-04-11T12:43:10.540Z,1.53
2023-04-11T12:45:39.140Z,1.53
2023-04-11T12:48:07.732Z,1.90
2023-04-11T12:50:36.928Z,1.97
2023-04-11T12:53:04.736Z,1.63
2023-04-11T12:55:32.734Z,2.00
2023-04-11T12:58:00.848Z,1.80
2023-04-11T13:00:28.800Z,2.07
2023-04-11T13:02:57.905Z,1.63
2023-04-11T13:05:27.298Z,2.03
2023-04-11T13:07:56.547Z,1.80
2023-04-11T13:10:24.591Z,1.60
2023-04-11T13:12:53.351Z,1.93
2023-04-11T13:15:21.352Z,1.97
2023-04-11T13:17:49.340Z,1.70
2023-04-11T13:20:17.427Z,1.70
2023-04-11T13:22:45.231Z,1.90
2023-04-11T13:25:14.460Z,1.80
2023-04-11T13:27:42.605Z,1.57
2023-04-11T13:30:11.817Z,1.80
2023-04-11T13:32:39.819Z,1.50
2023-04-11T13:35:08.886Z,1.83
2023-04-11T13:37:36.706Z,1.70
2023-04-11T13:40:10.001Z,1.70
2023-04-11T13:42:39.126Z,1.90
2023-04-11T13:45:07.872Z,1.60
2023-04-11T13:47:38.405Z,1.47
2023-04-11T13:50:08.583Z,1.50
2023-04-11T13:52:36.428Z,1.60
2023-04-11T13:55:04.455Z,1.43
2023-04-11T13:57:32.268Z,1.50
2023-04-11T14:00:01.633Z,1.57
2023-04-11T14:02:29.551Z,1.70
2023-04-11T14:04:58.135Z,1.73
2023-04-11T14:07:25.988Z,1.40
2023-04-11T14:09:53.953Z,1.50
2023-04-11T14:12:21.769Z,1.60
2023-04-11T14:14:49.605Z,1.40
2023-04-11T14:17:18.813Z,1.40
2023-04-11T14:19:46.624Z,1.50
2023-04-11T14:22:14.477Z,1.20
2023-04-11T14:24:42.744Z,1.50
2023-04-11T14:27:11.162Z,1.30
2023-04-11T14:29:42.270Z,1.63
2023-04-11T14:32:10.442Z,1.57
2023-04-11T14:34:39.913Z,1.50
2023-04-11T14:37:08.722Z,1.30
2023-04-11T14:39:38.982Z,1.90
2023-04-11T14:42:07.173Z,1.83
2023-04-11T14:44:35.542Z,1.33
2023-04-11T14:47:03.562Z,1.37
2023-04-11T14:49:31.549Z,1.60
2023-04-11T14:52:03.783Z,1.80
2023-04-11T14:54:31.589Z,1.63
2023-04-11T14:56:59.682Z,1.80
2023-04-11T14:59:27.754Z,1.57
2023-04-11T15:01:55.595Z,1.60
2023-04-11T15:04:23.528Z,1.37
2023-04-11T15:06:51.380Z,1.90
2023-04-11T15:09:21.130Z,1.50
2023-04-11T15:11:49.664Z,1.53
2023-04-11T15:14:17.501Z,1.67
2023-04-11T15:16:45.539Z,1.80
2023-04-11T15:19:13.397Z,1.50
2023-04-11T15:21:41.288Z,1.73
2023-04-11T15:24:09.099Z,1.70
2023-04-11T15:26:38.324Z,1.70
2023-04-11T15:29:07.038Z,1.60
2023-04-11T15:31:36.414Z,1.50
2023-04-11T15:34:04.360Z,1.93
2023-04-11T15:36:32.688Z,1.40
2023-04-11T15:39:00.742Z,1.17
2023-04-11T15:41:28.499Z,1.37
2023-04-11T15:43:58.066Z,1.30
2023-04-11T15:46:27.137Z,1.80
2023-04-11T15:48:55.053Z,1.47
2023-04-11T15:51:23.190Z,1.40
2023-04-11T15:53:50.974Z,1.70
2023-04-11T15:56:19.911Z,0.93
2023-04-11T15:58:49.120Z,1.10
2023-04-11T16:01:25.124Z,1.70
2023-04-11T16:03:53.477Z,1.50
2023-04-11T16:06:21.545Z,1.60
2023-04-11T16:08:49.427Z,1.50
2023-04-11T16:11:17.192Z,1.23
2023-04-11T16:13:45.129Z,1.80
2023-04-11T16:16:13.062Z,1.60
2023-04-11T16:18:42.252Z,1.33
2023-04-11T16:21:14.408Z,1.43
2023-04-11T16:23:42.262Z,1.23
2023-04-11T16:26:10.444Z,1.50
2023-04-11T16:28:38.243Z,1.60
2023-04-11T16:31:06.404Z,1.63
2023-04-11T16:33:34.201Z,1.50
2023-04-11T16:36:03.443Z,1.60
2023-04-11T16:38:31.365Z,1.70
2023-04-11T16:41:01.369Z,1.70
2023-04-11T16:43:29.152Z,1.87
2023-04-11T16:45:56.995Z,1.87
2023-04-11T16:48:27.086Z,1.60
2023-04-11T16:50:54.877Z,1.83
2023-04-11T16:53:24.339Z,1.87
2023-04-11T16:55:53.572Z,1.80
2023-04-11T16:58:21.378Z,1.60
2023-04-11T17:00:49.296Z,2.00
2023-04-11T17:03:18.122Z,2.03
2023-04-11T17:05:46.719Z,1.93
2023-04-11T17:08:15.740Z,1.87
2023-04-11T17:10:45.198Z,1.93
2023-04-11T17:13:14.633Z,1.90
2023-04-11T17:15:42.755Z,2.00
2023-04-11T17:18:10.820Z,2.00
2023-04-11T17:20:38.718Z,1.80
2023-04-11T17:23:06.586Z,1.60
2023-04-11T17:25:34.513Z,1.93
2023-04-11T17:28:03.832Z,2.40
2023-04-11T17:30:32.798Z,1.87
2023-04-11T17:33:00.930Z,1.70
2023-04-11T17:35:29.462Z,1.80
2023-04-11T17:37:58.998Z,1.87
2023-04-11T17:40:26.823Z,1.60
2023-04-11T17:42:54.751Z,1.93
2023-04-11T17:45:24.167Z,1.60
2023-04-11T17:47:51.989Z,1.87
2023-04-11T17:50:20.085Z,2.00
2023-04-11T17:52:48.356Z,1.90
2023-04-11T17:55:17.125Z,2.00
2023-04-11T17:57:47.311Z,1.70
2023-04-11T18:00:20.100Z,1.90
2023-04-11T18:02:50.796Z,1.80
2023-04-11T18:05:24.358Z,1.90
2023-04-11T18:07:54.597Z,1.77
2023-04-11T18:10:22.808Z,1.77
2023-04-11T18:12:52.394Z,2.00
2023-04-11T18:15:21.217Z,2.00
2023-04-11T18:17:51.882Z,1.90
2023-04-11T18:20:20.118Z,1.80
2023-04-11T18:22:54.788Z,1.80
2023-04-11T18:25:23.241Z,1.80
2023-04-11T18:27:51.050Z,1.97
2023-04-11T18:30:19.478Z,1.90
2023-04-11T18:32:50.092Z,2.17
2023-04-11T18:35:20.156Z,1.93
2023-04-11T18:37:47.967Z,2.10
2023-04-11T18:40:16.270Z,1.97
2023-04-11T18:42:46.695Z,2.07
2023-04-11T18:45:17.464Z,2.47
2023-04-11T18:47:46.289Z,2.00
2023-04-11T18:50:14.565Z,2.00
2023-04-11T18:52:45.247Z,1.93
2023-04-11T18:55:13.546Z,2.10
2023-04-11T18:57:43.317Z,2.20
2023-04-11T19:00:18.417Z,2.13
2023-04-11T19:02:47.478Z,2.30
2023-04-11T19:05:16.351Z,2.30
2023-04-11T19:07:46.616Z,2.00
2023-04-11T19:10:14.859Z,2.23
2023-04-11T19:12:42.729Z,2.80
2023-04-11T19:15:11.604Z,2.20
2023-04-11T19:17:39.911Z,1.87
2023-04-11T19:20:12.220Z,2.20
2023-04-11T19:22:41.313Z,2.17
2023-04-11T19:25:11.950Z,2.37
2023-04-11T19:27:41.515Z,2.80
2023-04-11T19:30:13.768Z,2.57
2023-04-11T19:32:43.634Z,2.43
2023-04-11T19:35:12.617Z,2.60
2023-04-11T19:37:41.599Z,2.47
2023-04-11T19:40:12.366Z,2.37
2023-04-11T19:42:40.585Z,2.40
2023-04-11T19:45:11.059Z,2.30
2023-04-11T19:47:40.132Z,2.10
2023-04-11T19:50:12.021Z,2.30
2023-04-11T19:52:40.861Z,2.33
2023-04-11T19:55:10.881Z,2.50
2023-04-11T19:57:40.111Z,2.07
2023-04-11T20:00:13.949Z,2.50
2023-04-11T20:02:47.943Z,2.57
2023-04-11T20:05:18.045Z,2.63
2023-04-11T20:07:46.478Z,2.60
2023-04-11T20:10:17.029Z,2.10
2023-04-11T20:12:44.897Z,2.40
2023-04-11T20:15:14.736Z,2.30
2023-04-11T20:17:44.442Z,2.30
2023-04-11T20:20:14.058Z,2.70
2023-04-11T20:22:44.620Z,2.33
2023-04-11T20:25:12.509Z,2.50
2023-04-11T20:27:43.227Z,2.40
2023-04-11T20:30:12.165Z,2.63
2023-04-11T20:32:40.934Z,2.60
2023-04-11T20:35:09.820Z,3.27
2023-04-11T20:37:37.818Z,3.53
2023-04-11T20:40:07.916Z,3.80
2023-04-11T20:42:39.799Z,3.40
2023-04-11T20:45:11.674Z,3.30
2023-04-11T20:47:40.274Z,3.00
2023-04-11T20:50:10.250Z,3.87
2023-04-11T20:52:43.430Z,3.53
2023-04-11T20:55:12.545Z,2.70
2023-04-11T20:57:40.829Z,3.10
2023-04-11T21:00:14.290Z,2.97
2023-04-11T21:02:44.170Z,2.60
2023-04-11T21:05:13.035Z,2.70
2023-04-11T21:07:41.646Z,2.93
2023-04-11T21:10:10.544Z,2.80
2023-04-11T21:12:38.819Z,2.73
2023-04-11T21:15:08.525Z,2.90
2023-04-11T21:17:39.690Z,2.90
2023-04-11T21:20:11.071Z,2.47
2023-04-11T21:22:40.311Z,2.37
2023-04-11T21:25:09.352Z,2.83
2023-04-11T21:27:37.398Z,2.70
2023-04-11T21:30:06.418Z,2.33
2023-04-11T21:32:38.093Z,2.50
2023-04-11T21:35:08.911Z,2.10
2023-04-11T21:37:36.773Z,2.63
2023-04-11T21:40:05.604Z,2.60
2023-04-11T21:42:33.536Z,2.60
2023-04-11T21:45:01.510Z,2.50
2023-04-11T21:47:29.492Z,2.90
2023-04-11T21:49:58.671Z,3.03
2023-04-11T21:52:26.585Z,2.90
2023-04-11T21:54:54.432Z,2.77
2023-04-11T21:57:24.796Z,2.53
2023-04-11T21:59:52.556Z,2.80
2023-04-11T22:02:20.709Z,2.83
2023-04-11T22:05:04.627Z,2.20
2023-04-11T22:07:39.335Z,2.43
2023-04-11T22:10:11.713Z,2.27
2023-04-11T22:12:40.261Z,2.63
2023-04-11T22:15:12.402Z,2.60
2023-04-11T22:17:41.777Z,2.37
2023-04-11T22:20:11.275Z,2.80
2023-04-11T22:22:40.837Z,2.23
2023-04-11T22:25:09.925Z,2.40
2023-04-11T22:27:38.287Z,2.93
2023-04-11T22:30:07.785Z,2.20
2023-04-11T22:32:36.871Z,2.37
2023-04-11T22:35:05.609Z,2.40
2023-04-11T22:37:33.736Z,2.30
2023-04-11T22:40:06.235Z,2.40
2023-04-11T22:42:34.049Z,2.40
2023-04-11T22:45:01.937Z,2.33
2023-04-11T22:47:29.892Z,2.70
2023-04-11T22:49:57.870Z,2.43
2023-04-11T22:52:26.284Z,2.13
2023-04-11T22:54:56.260Z,2.47
2023-04-11T22:57:25.445Z,2.00
2023-04-11T22:59:53.505Z,2.10
2023-04-11T23:02:21.384Z,2.10
2023-04-11T23:04:49.243Z,2.60
2023-04-11T23:07:17.907Z,2.13
2023-04-11T23:09:47.175Z,2.40
2023-04-11T23:12:14.972Z,2.60
2023-04-11T23:14:44.103Z,2.10
2023-04-11T23:17:13.357Z,2.37
2023-04-11T23:19:41.187Z,2.10
2023-04-11T23:22:09.549Z,2.27
2023-04-11T23:24:37.343Z,2.20
2023-04-11T23:27:05.272Z,2.20
2023-04-11T23:29:33.250Z,2.10
2023-04-11T23:32:02.488Z,2.30
2023-04-11T23:34:30.606Z,2.40
2023-04-11T23:36:58.628Z,2.10
2023-04-11T23:39:26.494Z,2.40
2023-04-11T23:41:54.354Z,2.07
2023-04-11T23:44:22.596Z,2.10
2023-04-11T23:46:50.561Z,2.10
2023-04-11T23:49:19.717Z,2.13
2023-04-11T23:51:47.552Z,2.20
2023-04-11T23:54:15.356Z,2.20
2023-04-11T23:56:43.855Z,2.23
2023-04-11T23:59:11.734Z,2.13
